createdAt,value
2022-11-01T00:00:13.003Z,49.12
2022-11-01T00:02:28.005Z,49.10
2022-11-01T00:03:30.090Z,49.07
2022-11-01T00:04:32.083Z,49.08
2022-11-01T00:05:34.226Z,49.01
2022-11-01T00:06:36.604Z,49.05
2022-11-01T00:07:39.583Z,49.03
2022-11-01T00:08:43.759Z,49.03
2022-11-01T00:09:47.121Z,49.01
2022-11-01T00:10:50.101Z,49.02
2022-11-01T00:11:52.390Z,49.00
2022-11-01T00:12:55.385Z,49.01
2022-11-01T00:13:58.093Z,48.98
2022-11-01T00:15:00.389Z,48.98
2022-11-01T00:16:02.738Z,49.02
2022-11-01T00:17:05.446Z,49.01
2022-11-01T00:18:08.208Z,49.07
2022-11-01T00:19:10.659Z,49.01
2022-11-01T00:20:14.411Z,49.05
2022-11-01T00:21:17.000Z,49.05
2022-11-01T00:22:19.095Z,49.08
2022-11-01T00:23:21.695Z,49.05
2022-11-01T00:24:23.684Z,49.07
2022-11-01T00:25:26.227Z,49.06
2022-11-01T00:26:28.484Z,49.08
2022-11-01T00:27:30.561Z,49.08
2022-11-01T00:28:33.074Z,49.08
2022-11-01T00:29:35.729Z,49.08
2022-11-01T00:30:38.637Z,49.09
2022-11-01T00:31:41.873Z,49.06
2022-11-01T00:32:44.007Z,49.09
2022-11-01T00:33:46.278Z,49.11
2022-11-01T00:34:48.367Z,49.11
2022-11-01T00:35:51.625Z,49.05
2022-11-01T00:36:53.893Z,49.11
2022-11-01T00:37:55.990Z,49.11
2022-11-01T00:38:58.404Z,49.09
2022-11-01T00:40:00.573Z,49.13
2022-11-01T00:41:04.656Z,49.17
2022-11-01T00:42:07.194Z,49.18
2022-11-01T00:43:10.695Z,49.17
2022-11-01T00:44:13.403Z,49.17
2022-11-01T00:45:15.927Z,49.18
2022-11-01T00:46:20.219Z,49.20
2022-11-01T00:47:23.341Z,49.17
2022-11-01T00:48:25.689Z,49.23
2022-11-01T00:49:28.455Z,49.22
2022-11-01T00:50:31.270Z,49.22
2022-11-01T00:51:33.395Z,49.21
2022-11-01T00:52:36.372Z,49.22
2022-11-01T00:53:38.550Z,49.28
2022-11-01T00:54:41.450Z,49.28
2022-11-01T00:55:43.557Z,49.25
2022-11-01T00:56:45.744Z,49.28
2022-11-01T00:57:47.930Z,49.19
2022-11-01T00:58:50.963Z,49.24
2022-11-01T01:00:55.515Z,49.23
2022-11-01T01:01:57.746Z,49.23
2022-11-01T01:03:01.223Z,49.24
2022-11-01T01:04:05.698Z,49.22
2022-11-01T01:05:09.428Z,49.22
2022-11-01T01:06:12.728Z,49.20
2022-11-01T01:07:14.827Z,49.22
2022-11-01T01:08:17.038Z,49.23
2022-11-01T01:09:19.149Z,49.25
2022-11-01T01:10:22.359Z,49.22
2022-11-01T01:11:24.486Z,49.28
2022-11-01T01:12:26.906Z,49.23
2022-11-01T01:13:28.934Z,49.28
2022-11-01T01:14:32.460Z,49.29
2022-11-01T01:15:34.995Z,49.31
2022-11-01T01:16:37.213Z,49.29
2022-11-01T01:17:40.316Z,49.26
2022-11-01T01:18:42.581Z,49.27
2022-11-01T01:19:44.767Z,49.33
2022-11-01T01:20:47.074Z,49.40
2022-11-01T01:21:49.157Z,49.39
2022-11-01T01:22:51.244Z,49.32
2022-11-01T01:23:53.257Z,49.29
2022-11-01T01:24:55.809Z,49.34
2022-11-01T01:25:58.008Z,49.32
2022-11-01T01:27:00.854Z,49.31
2022-11-01T01:28:04.912Z,49.31
2022-11-01T01:29:08.158Z,49.33
2022-11-01T01:30:11.478Z,49.32
2022-11-01T01:31:13.456Z,49.36
2022-11-01T01:32:18.556Z,49.39
2022-11-01T01:33:20.569Z,49.39
2022-11-01T01:34:22.675Z,49.41
2022-11-01T01:35:24.766Z,49.42
2022-11-01T01:36:26.961Z,49.42
2022-11-01T01:37:29.062Z,49.44
2022-11-01T01:38:31.364Z,49.45
2022-11-01T01:39:34.077Z,49.45
2022-11-01T01:40:36.327Z,49.46
2022-11-01T01:41:38.428Z,49.46
2022-11-01T01:42:41.810Z,49.44
2022-11-01T01:43:45.795Z,49.44
2022-11-01T01:44:54.380Z,49.46
2022-11-01T01:45:57.923Z,49.44
2022-11-01T01:47:01.337Z,49.45
2022-11-01T01:48:20.942Z,49.42
2022-11-01T01:49:25.324Z,49.44
2022-11-01T01:50:34.422Z,49.39
2022-11-01T01:51:36.581Z,49.42
2022-11-01T01:53:00.536Z,49.42
2022-11-01T01:54:03.249Z,49.44
2022-11-01T01:55:07.919Z,49.51
2022-11-01T01:57:25.886Z,49.58
2022-11-01T02:00:03.784Z,49.62
2022-11-01T02:01:07.989Z,49.60
2022-11-01T02:02:11.128Z,49.64
2022-11-01T02:03:13.892Z,49.70
2022-11-01T02:04:25.544Z,49.65
2022-11-01T02:06:42.507Z,49.77
2022-11-01T02:07:44.883Z,49.81
2022-11-01T02:08:49.870Z,49.81
2022-11-01T02:09:52.335Z,49.83
2022-11-01T02:11:00.249Z,49.83
2022-11-01T02:12:02.862Z,49.81
2022-11-01T02:13:13.014Z,49.83
2022-11-01T02:14:16.325Z,49.82
2022-11-01T02:15:18.886Z,49.80
2022-11-01T02:16:37.246Z,49.84
2022-11-01T02:19:45.838Z,49.84
2022-11-01T02:21:25.745Z,49.88
2022-11-01T02:22:38.637Z,49.94
2022-11-01T02:24:00.767Z,49.88
2022-11-01T02:25:31.019Z,49.95
2022-11-01T02:26:59.961Z,50.00
2022-11-01T02:28:15.041Z,50.03
2022-11-01T02:29:36.233Z,50.08
2022-11-01T02:30:52.877Z,50.17
2022-11-01T02:31:58.902Z,50.18
2022-11-01T02:33:14.380Z,50.25
2022-11-01T02:34:19.707Z,50.27
2022-11-01T02:35:25.615Z,50.35
2022-11-01T02:36:31.641Z,50.34
2022-11-01T02:37:37.544Z,50.34
2022-11-01T02:40:11.691Z,50.35
2022-11-01T02:41:34.095Z,50.42
2022-11-01T02:42:38.796Z,50.37
2022-11-01T02:43:59.574Z,50.27
2022-11-01T02:45:14.672Z,50.29
2022-11-01T02:46:18.057Z,50.24
2022-11-01T02:47:21.195Z,50.22
2022-11-01T02:48:23.248Z,50.24
2022-11-01T02:50:44.820Z,50.26
2022-11-01T02:51:47.693Z,50.26
2022-11-01T02:52:49.764Z,50.25
2022-11-01T02:53:51.844Z,50.20
2022-11-01T02:55:01.082Z,50.19
2022-11-01T02:56:03.213Z,50.16
2022-11-01T02:57:32.090Z,50.15
2022-11-01T02:58:34.217Z,50.12
2022-11-01T02:59:44.269Z,50.11
2022-11-01T03:00:46.570Z,50.07
2022-11-01T03:03:19.318Z,50.21
2022-11-01T03:04:21.377Z,50.28
2022-11-01T03:05:31.946Z,50.22
2022-11-01T03:06:38.188Z,50.23
2022-11-01T03:07:42.051Z,50.30
2022-11-01T03:08:45.969Z,50.30
2022-11-01T03:09:48.491Z,50.24
2022-11-01T03:10:54.477Z,50.29
2022-11-01T03:13:40.968Z,50.27
2022-11-01T03:14:46.840Z,50.30
2022-11-01T03:15:52.764Z,50.23
2022-11-01T03:18:28.389Z,50.27
2022-11-01T03:19:43.100Z,50.29
2022-11-01T03:20:51.573Z,50.26
2022-11-01T03:22:12.074Z,50.34
2022-11-01T03:24:38.559Z,50.28
2022-11-01T03:25:44.408Z,50.30
2022-11-01T03:26:49.489Z,50.32
2022-11-01T03:27:52.986Z,50.33
2022-11-01T03:28:58.238Z,50.29
2022-11-01T03:30:06.001Z,50.34
2022-11-01T03:31:17.381Z,50.34
2022-11-01T03:32:20.651Z,50.24
2022-11-01T03:33:24.394Z,50.30
2022-11-01T03:34:27.845Z,50.34
2022-11-01T03:35:36.589Z,50.35
2022-11-01T03:36:40.937Z,50.39
2022-11-01T03:37:43.642Z,50.62
2022-11-01T03:38:55.504Z,50.62
2022-11-01T03:39:57.560Z,50.40
2022-11-01T03:41:04.054Z,50.39
2022-11-01T03:42:08.658Z,50.37
2022-11-01T03:43:12.253Z,50.36
2022-11-01T03:44:14.475Z,50.39
2022-11-01T03:45:18.695Z,50.37
2022-11-01T03:46:21.117Z,50.38
2022-11-01T03:47:23.722Z,50.36
2022-11-01T03:48:26.526Z,50.33
2022-11-01T03:49:28.509Z,50.36
2022-11-01T03:50:31.116Z,50.37
2022-11-01T03:51:33.111Z,50.30
2022-11-01T03:52:36.184Z,50.32
2022-11-01T03:53:38.874Z,50.79
2022-11-01T03:54:41.438Z,50.99
2022-11-01T03:55:45.998Z,51.12
2022-11-01T03:56:48.691Z,51.35
2022-11-01T03:59:05.620Z,51.72
2022-11-01T04:00:10.821Z,51.78
2022-11-01T04:01:16.570Z,51.87
2022-11-01T04:02:18.933Z,51.86
2022-11-01T04:03:21.970Z,51.92
2022-11-01T04:04:24.539Z,51.94
2022-11-01T04:05:28.061Z,52.05
2022-11-01T04:06:31.497Z,52.09
2022-11-01T04:07:34.386Z,52.15
2022-11-01T04:08:36.858Z,52.21
2022-11-01T04:09:38.954Z,52.14
2022-11-01T04:10:41.670Z,52.21
2022-11-01T04:11:43.667Z,52.14
2022-11-01T04:12:46.552Z,52.13
2022-11-01T04:13:48.663Z,52.10
2022-11-01T04:14:51.133Z,52.08
2022-11-01T04:15:53.300Z,52.13
2022-11-01T04:16:55.470Z,52.11
2022-11-01T04:18:16.885Z,52.08
2022-11-01T04:19:19.711Z,52.07
2022-11-01T04:20:22.913Z,52.02
2022-11-01T04:21:25.338Z,52.06
2022-11-01T04:22:28.494Z,52.13
2022-11-01T04:23:31.877Z,52.15
2022-11-01T04:24:34.631Z,52.18
2022-11-01T04:25:36.736Z,52.22
2022-11-01T04:26:38.921Z,52.19
2022-11-01T04:27:41.815Z,52.34
2022-11-01T04:28:44.899Z,52.35
2022-11-01T04:29:47.745Z,52.40
2022-11-01T04:30:49.927Z,52.29
2022-11-01T04:31:52.639Z,52.35
2022-11-01T04:32:54.738Z,52.33
2022-11-01T04:33:57.242Z,52.19
2022-11-01T04:34:59.251Z,52.16
2022-11-01T04:36:05.936Z,52.19
2022-11-01T04:37:08.250Z,52.23
2022-11-01T04:38:10.872Z,52.22
2022-11-01T04:39:13.500Z,51.71
2022-11-01T04:40:15.991Z,51.71
2022-11-01T04:41:18.702Z,52.19
2022-11-01T04:42:20.781Z,52.17
2022-11-01T04:43:22.940Z,52.20
2022-11-01T04:44:26.058Z,52.19
2022-11-01T04:45:28.099Z,52.20
2022-11-01T04:46:30.288Z,52.22
2022-11-01T04:47:33.366Z,52.18
2022-11-01T04:48:35.375Z,52.17
2022-11-01T04:49:37.352Z,52.18
2022-11-01T04:50:40.366Z,52.14
2022-11-01T04:51:42.532Z,52.17
2022-11-01T04:52:45.164Z,52.19
2022-11-01T04:53:47.723Z,52.15
2022-11-01T04:54:49.799Z,52.18
2022-11-01T04:55:52.669Z,52.15
2022-11-01T04:56:55.312Z,52.11
2022-11-01T04:57:58.397Z,52.13
2022-11-01T04:59:01.754Z,52.12
2022-11-01T05:00:05.298Z,52.10
2022-11-01T05:01:07.746Z,52.12
2022-11-01T05:02:10.334Z,52.18
2022-11-01T05:03:12.576Z,52.15
2022-11-01T05:04:15.381Z,52.15
2022-11-01T05:05:17.707Z,52.20
2022-11-01T05:06:20.540Z,52.20
2022-11-01T05:07:22.690Z,52.18
2022-11-01T05:08:26.179Z,52.22
2022-11-01T05:09:41.827Z,52.23
2022-11-01T05:10:44.074Z,52.22
2022-11-01T05:11:47.234Z,52.32
2022-11-01T05:12:49.363Z,52.31
2022-11-01T05:13:52.403Z,52.29
2022-11-01T05:14:56.786Z,52.29
2022-11-01T05:16:18.911Z,52.33
2022-11-01T05:17:08.129Z,52.33
2022-11-01T05:18:10.301Z,52.35
2022-11-01T05:19:12.413Z,52.30
2022-11-01T05:20:14.483Z,52.30
2022-11-01T05:21:17.598Z,52.38
2022-11-01T05:22:20.833Z,52.36
2022-11-01T05:23:22.877Z,52.36
2022-11-01T05:24:25.647Z,52.44
2022-11-01T05:25:28.085Z,52.40
2022-11-01T05:26:30.294Z,52.46
2022-11-01T05:27:32.431Z,52.47
2022-11-01T05:28:34.413Z,52.47
2022-11-01T05:29:36.401Z,52.47
2022-11-01T05:30:38.779Z,52.44
2022-11-01T05:31:41.842Z,52.45
2022-11-01T05:32:43.994Z,52.45
2022-11-01T05:33:46.068Z,52.45
2022-11-01T05:34:48.321Z,52.40
2022-11-01T05:35:50.400Z,52.45
2022-11-01T05:36:55.187Z,52.41
2022-11-01T05:37:57.457Z,52.39
2022-11-01T05:38:59.567Z,52.37
2022-11-01T05:40:03.165Z,52.34
2022-11-01T05:41:06.071Z,52.35
2022-11-01T05:42:08.482Z,52.33
2022-11-01T05:43:10.992Z,52.36
2022-11-01T05:44:12.984Z,52.36
2022-11-01T05:45:15.474Z,52.38
2022-11-01T05:46:18.010Z,52.35
2022-11-01T05:47:20.118Z,52.37
2022-11-01T05:48:22.187Z,52.32
2022-11-01T05:49:24.580Z,52.35
2022-11-01T05:50:27.826Z,52.41
2022-11-01T05:51:29.959Z,52.39
2022-11-01T05:52:32.075Z,52.35
2022-11-01T05:53:35.268Z,52.27
2022-11-01T05:54:37.233Z,52.25
2022-11-01T05:55:39.220Z,52.24
2022-11-01T05:56:44.336Z,52.20
2022-11-01T05:58:51.808Z,52.15
2022-11-01T05:59:53.952Z,52.12
2022-11-01T06:01:00.230Z,52.03
2022-11-01T06:02:02.491Z,52.11
2022-11-01T06:03:07.014Z,52.04
2022-11-01T06:04:09.354Z,51.96
2022-11-01T06:05:11.353Z,51.97
2022-11-01T06:06:14.214Z,52.00
2022-11-01T06:07:16.391Z,52.01
2022-11-01T06:08:18.675Z,52.03
2022-11-01T06:09:21.278Z,52.04
2022-11-01T06:10:23.463Z,52.15
2022-11-01T06:11:26.556Z,52.12
2022-11-01T06:12:29.025Z,52.11
2022-11-01T06:13:31.621Z,52.03
2022-11-01T06:15:38.885Z,52.03
2022-11-01T06:16:40.873Z,52.03
2022-11-01T06:17:43.345Z,52.02
2022-11-01T06:18:46.273Z,52.02
2022-11-01T06:19:48.677Z,52.02
2022-11-01T06:20:51.514Z,51.95
2022-11-01T06:21:53.515Z,51.92
2022-11-01T06:22:56.356Z,51.91
2022-11-01T06:23:58.535Z,51.88
2022-11-01T06:25:00.634Z,51.80
2022-11-01T06:26:03.362Z,51.84
2022-11-01T06:27:09.949Z,51.89
2022-11-01T06:28:10.286Z,51.75
2022-11-01T06:29:13.227Z,51.83
2022-11-01T06:30:15.677Z,51.81
2022-11-01T06:31:18.508Z,51.77
2022-11-01T06:32:21.368Z,51.78
2022-11-01T06:33:23.378Z,51.87
2022-11-01T06:34:25.490Z,51.89
2022-11-01T11:09:46.751Z,53.00
2022-11-01T11:10:49.348Z,52.87
2022-11-01T11:13:06.978Z,52.24
2022-11-01T11:14:09.390Z,51.96
2022-11-01T11:15:18.477Z,51.66
2022-11-01T11:17:38.743Z,50.72
2022-11-01T11:18:40.815Z,49.88
2022-11-01T11:19:42.987Z,49.88
2022-11-01T11:20:50.518Z,49.69
2022-11-01T11:21:53.576Z,49.35
2022-11-01T11:22:56.565Z,49.08
2022-11-01T11:23:58.763Z,48.84
2022-11-01T11:25:01.181Z,48.56
2022-11-01T11:26:17.121Z,48.43
2022-11-01T11:27:22.246Z,48.22
2022-11-01T11:29:53.698Z,47.54
2022-11-01T11:30:58.089Z,47.37
2022-11-01T11:32:00.197Z,47.04
2022-11-01T11:33:03.154Z,46.95
2022-11-01T11:35:33.789Z,46.20
2022-11-01T11:36:38.406Z,46.03
2022-11-01T11:37:40.534Z,46.25
2022-11-01T11:38:47.321Z,46.25
2022-11-01T11:40:01.608Z,46.11
2022-11-01T11:41:07.895Z,45.83
2022-11-01T11:42:18.722Z,45.24
2022-11-01T11:43:26.348Z,45.17
2022-11-01T11:46:07.998Z,45.37
2022-11-01T11:47:24.922Z,44.54
2022-11-01T11:48:27.668Z,44.50
2022-11-01T11:49:29.725Z,44.63
2022-11-01T11:50:32.246Z,44.59
2022-11-01T11:51:35.519Z,44.64
2022-11-01T11:52:38.696Z,44.64
2022-11-01T11:53:43.262Z,44.60
2022-11-01T11:54:45.917Z,44.57
2022-11-01T11:55:53.223Z,44.55
2022-11-01T11:57:09.592Z,44.52
2022-11-01T11:58:24.444Z,44.46
2022-11-01T11:59:29.408Z,44.34
2022-11-01T12:00:34.272Z,44.24
2022-11-01T12:01:36.941Z,44.11
2022-11-01T12:02:39.884Z,44.00
2022-11-01T12:03:47.799Z,43.88
2022-11-01T12:04:54.992Z,43.75
2022-11-01T12:06:02.879Z,43.60
2022-11-01T12:07:05.495Z,43.53
2022-11-01T12:08:11.335Z,43.41
2022-11-01T12:09:37.050Z,43.30
2022-11-01T12:10:39.997Z,43.11
2022-11-01T12:11:45.200Z,42.73
2022-11-01T12:12:50.308Z,42.60
2022-11-01T12:14:02.069Z,42.43
2022-11-01T12:15:08.960Z,42.19
2022-11-01T12:16:17.296Z,42.12
2022-11-01T12:18:51.660Z,41.66
2022-11-01T12:20:02.434Z,41.51
2022-11-01T12:21:04.672Z,41.43
2022-11-01T12:22:08.481Z,41.25
2022-11-01T12:23:16.881Z,41.07
2022-11-01T12:24:26.877Z,40.94
2022-11-01T12:25:29.932Z,40.84
2022-11-01T12:26:33.007Z,40.77
2022-11-01T12:27:35.316Z,40.69
2022-11-01T12:28:40.262Z,40.66
2022-11-01T12:29:45.786Z,40.63
2022-11-01T12:30:49.488Z,40.46
2022-11-01T12:31:52.244Z,40.73
2022-11-01T12:33:00.381Z,40.73
2022-11-01T12:35:30.259Z,40.26
2022-11-01T12:36:42.197Z,40.16
2022-11-01T12:38:15.604Z,40.13
2022-11-01T12:40:54.696Z,40.03
2022-11-01T12:41:57.826Z,40.05
2022-11-01T12:43:15.337Z,40.19
2022-11-01T12:44:36.191Z,40.27
2022-11-01T12:47:14.089Z,40.38
2022-11-01T12:49:40.723Z,40.37
2022-11-01T12:50:51.311Z,40.42
2022-11-01T12:51:55.430Z,40.53
2022-11-01T12:53:04.852Z,40.63
2022-11-01T12:54:20.252Z,40.72
2022-11-01T12:55:32.440Z,40.76
2022-11-01T12:56:35.666Z,40.88
2022-11-01T12:57:38.007Z,40.97
2022-11-01T12:58:42.035Z,41.05
2022-11-01T12:59:45.611Z,41.18
2022-11-01T13:01:04.647Z,41.66
2022-11-01T13:02:27.379Z,41.66
2022-11-01T13:03:51.782Z,41.40
2022-11-01T13:05:01.418Z,41.46
2022-11-01T13:06:27.528Z,41.52
2022-11-01T13:07:54.529Z,41.66
2022-11-01T13:09:07.138Z,41.69
2022-11-01T13:10:34.738Z,41.72
2022-11-01T13:12:00.315Z,41.84
2022-11-01T13:15:03.463Z,42.15
2022-11-01T13:17:54.453Z,42.48
2022-11-01T13:19:06.597Z,42.60
2022-11-01T13:20:43.688Z,42.76
2022-11-01T13:22:04.951Z,42.91
2022-11-01T13:23:39.702Z,43.05
2022-11-01T13:24:45.593Z,43.11
2022-11-01T13:25:51.068Z,43.23
2022-11-01T13:27:04.945Z,43.34
2022-11-01T13:29:51.985Z,43.55
2022-11-01T13:32:31.898Z,43.71
2022-11-01T13:35:08.415Z,43.86
2022-11-01T13:38:07.634Z,43.94
2022-11-01T13:39:16.764Z,43.97
2022-11-01T13:40:31.837Z,44.07
2022-11-01T13:43:05.434Z,44.17
2022-11-01T13:45:39.245Z,44.27
2022-11-01T13:47:11.102Z,44.30
2022-11-01T13:48:35.806Z,44.33
2022-11-01T13:49:44.988Z,44.33
2022-11-01T13:50:51.490Z,44.36
2022-11-01T13:52:09.014Z,44.43
2022-11-01T13:53:18.576Z,44.50
2022-11-01T13:54:44.183Z,44.52
2022-11-01T13:56:05.486Z,44.58
2022-11-01T13:57:10.723Z,44.64
2022-11-01T13:58:19.024Z,44.67
2022-11-01T13:59:34.093Z,44.73
2022-11-01T14:00:43.613Z,44.77
2022-11-01T14:01:45.918Z,44.81
2022-11-01T14:04:15.439Z,44.88
2022-11-01T14:05:17.938Z,44.91
2022-11-01T14:06:26.005Z,44.96
2022-11-01T14:08:47.314Z,45.00
2022-11-01T14:09:52.354Z,45.00
2022-11-01T14:10:54.685Z,45.02
2022-11-01T14:12:08.525Z,45.04
2022-11-01T14:13:16.513Z,45.05
2022-11-01T14:14:34.718Z,45.06
2022-11-01T14:17:23.286Z,45.09
2022-11-01T14:18:26.643Z,45.10
2022-11-01T14:19:29.454Z,45.16
2022-11-01T14:20:42.885Z,45.17
2022-11-01T14:21:46.215Z,45.22
2022-11-01T14:22:48.364Z,45.25
2022-11-01T14:23:52.530Z,45.29
2022-11-01T14:25:00.084Z,45.30
2022-11-01T14:26:23.052Z,45.31
2022-11-01T14:27:33.944Z,45.32
2022-11-01T14:28:44.487Z,45.32
2022-11-01T14:29:50.925Z,45.37
2022-11-01T14:30:55.132Z,45.38
2022-11-01T14:31:57.258Z,45.40
2022-11-01T14:33:00.519Z,45.41
2022-11-01T14:34:08.641Z,45.44
2022-11-01T14:35:14.804Z,45.49
2022-11-01T14:36:20.461Z,45.50
2022-11-01T14:37:23.271Z,45.49
2022-11-01T14:38:44.963Z,45.51
2022-11-01T14:40:02.386Z,45.52
2022-11-01T14:41:04.667Z,45.48
2022-11-01T19:36:46.893Z,54.99
2022-11-01T19:37:52.971Z,55.15
2022-11-01T19:38:55.267Z,55.16
2022-11-01T19:39:57.574Z,55.05
2022-11-01T19:40:59.988Z,54.92
2022-11-01T19:42:15.391Z,54.67
2022-11-01T19:43:22.887Z,54.42
2022-11-01T19:44:26.234Z,53.97
2022-11-01T19:45:31.965Z,53.66
2022-11-01T19:46:34.473Z,53.39
2022-11-01T19:47:40.723Z,52.99
2022-11-01T19:48:42.956Z,52.64
2022-11-01T19:49:45.105Z,52.27
2022-11-01T19:50:48.461Z,51.97
2022-11-01T19:52:03.999Z,51.57
2022-11-01T19:53:21.554Z,51.33
2022-11-01T19:54:23.864Z,51.05
2022-11-01T19:55:38.664Z,50.68
2022-11-01T19:56:41.025Z,50.49
2022-11-01T19:57:45.005Z,50.01
2022-11-01T19:58:53.868Z,49.68
2022-11-01T20:01:38.341Z,47.81
2022-11-01T20:02:42.232Z,47.21
2022-11-01T20:06:35.293Z,45.84
2022-11-01T20:07:38.322Z,45.69
2022-11-01T20:08:40.677Z,44.67
2022-11-01T20:09:42.907Z,45.19
2022-11-01T20:10:45.149Z,44.38
2022-11-01T20:11:48.411Z,45.22
2022-11-01T20:12:51.857Z,44.46
2022-11-01T20:13:54.195Z,45.15
2022-11-01T20:14:56.491Z,44.06
2022-11-01T20:15:59.515Z,43.92
2022-11-01T20:17:02.219Z,43.59
2022-11-01T20:18:05.046Z,42.74
2022-11-01T20:19:09.791Z,40.97
2022-11-01T20:20:13.109Z,40.97
2022-11-01T20:21:15.528Z,40.53
2022-11-01T20:22:18.360Z,40.53
2022-11-01T20:23:26.184Z,40.30
2022-11-01T20:24:25.490Z,40.14
2022-11-01T20:25:27.687Z,39.79
2022-11-01T20:26:31.425Z,39.28
2022-11-01T20:27:34.147Z,38.92
2022-11-01T20:28:36.374Z,38.72
2022-11-01T20:29:39.862Z,39.18
2022-11-01T20:30:42.110Z,38.34
2022-11-01T20:31:44.615Z,38.34
2022-11-01T20:32:47.752Z,38.58
2022-11-01T20:33:50.040Z,38.40
2022-11-01T20:34:53.276Z,39.15
2022-11-01T20:35:56.099Z,39.06
2022-11-01T20:38:03.443Z,40.73
2022-11-01T20:39:09.106Z,40.50
2022-11-01T20:40:11.566Z,39.07
2022-11-01T20:41:14.505Z,39.36
2022-11-01T20:42:17.272Z,38.60
2022-11-01T20:43:20.481Z,38.31
2022-11-01T20:44:22.624Z,38.05
2022-11-01T20:45:25.823Z,40.01
2022-11-01T20:46:28.970Z,38.73
2022-11-01T20:47:32.403Z,39.48
2022-11-01T20:48:34.833Z,40.10
2022-11-01T20:49:37.805Z,40.21
2022-11-01T20:50:40.159Z,40.51
2022-11-01T20:51:42.193Z,40.64
2022-11-01T20:52:44.594Z,40.60
2022-11-01T20:53:47.553Z,40.54
2022-11-01T20:54:50.838Z,40.35
2022-11-01T20:55:54.765Z,40.34
2022-11-01T20:57:00.146Z,40.79
2022-11-01T20:58:02.748Z,40.74
2022-11-01T20:59:05.360Z,40.80
2022-11-01T21:00:09.234Z,40.84
2022-11-01T21:01:17.824Z,40.96
2022-11-01T21:02:21.020Z,40.76
2022-11-01T21:03:27.320Z,40.85
2022-11-01T21:04:29.390Z,41.08
2022-11-01T21:05:31.498Z,40.23
2022-11-01T21:06:34.863Z,40.99
2022-11-01T21:07:43.668Z,41.02
2022-11-01T21:08:47.968Z,41.33
2022-11-01T21:09:51.463Z,40.83
2022-11-01T21:10:56.369Z,40.66
2022-11-01T21:11:58.778Z,41.78
2022-11-01T21:14:19.792Z,40.12
2022-11-01T21:15:38.349Z,40.98
2022-11-01T21:16:40.742Z,40.48
2022-11-01T21:17:43.063Z,39.58
2022-11-01T21:18:45.258Z,40.21
2022-11-01T21:21:17.085Z,39.40
2022-11-01T21:22:36.113Z,39.56
2022-11-01T21:23:38.183Z,38.68
2022-11-01T21:24:42.520Z,38.41
2022-11-01T21:25:44.906Z,38.63
2022-11-01T21:26:49.759Z,39.10
2022-11-01T21:27:52.617Z,41.65
2022-11-01T21:30:15.612Z,40.15
2022-11-01T21:31:29.898Z,39.38
2022-11-01T21:32:34.896Z,38.84
2022-11-01T21:33:38.927Z,39.71
2022-11-01T21:34:41.187Z,39.60
2022-11-01T21:35:44.058Z,38.94
2022-11-01T21:36:47.132Z,39.71
2022-11-01T21:37:54.189Z,39.56
2022-11-01T21:40:05.965Z,39.37
2022-11-01T21:42:48.123Z,39.56
2022-11-01T21:43:52.466Z,40.21
2022-11-01T21:44:55.453Z,39.04
2022-11-01T21:45:58.373Z,39.17
2022-11-01T21:47:20.650Z,38.42
2022-11-01T21:49:39.004Z,38.26
2022-11-01T21:50:42.219Z,38.26
2022-11-01T21:51:44.258Z,37.71
2022-11-01T21:52:46.372Z,37.34
2022-11-01T21:53:48.371Z,37.13
2022-11-01T21:54:50.471Z,37.57
2022-11-01T21:55:52.699Z,38.12
2022-11-01T21:56:55.646Z,37.57
2022-11-01T21:58:00.711Z,36.77
2022-11-01T21:59:03.009Z,36.65
2022-11-01T22:00:06.406Z,36.29
2022-11-01T22:01:08.792Z,36.16
2022-11-01T22:02:12.563Z,36.98
2022-11-01T22:03:15.267Z,36.64
2022-11-01T22:04:18.444Z,36.78
2022-11-01T22:05:21.550Z,36.34
2022-11-01T22:06:23.811Z,35.89
2022-11-01T22:07:26.200Z,35.88
2022-11-01T22:08:28.829Z,35.99
2022-11-01T22:09:32.591Z,36.64
2022-11-01T22:10:36.735Z,36.47
2022-11-01T22:11:41.271Z,36.38
2022-11-01T22:12:43.616Z,36.96
2022-11-01T22:13:45.743Z,37.51
2022-11-01T22:14:48.066Z,37.47
2022-11-01T22:15:50.180Z,37.84
2022-11-01T22:16:52.402Z,37.03
2022-11-01T22:17:54.530Z,37.12
2022-11-01T22:18:56.548Z,36.75
2022-11-01T22:19:59.839Z,37.46
2022-11-01T22:21:02.160Z,37.12
2022-11-01T22:22:05.537Z,37.60
2022-11-01T22:23:08.724Z,37.66
2022-11-01T22:24:10.783Z,37.26
2022-11-01T22:25:13.124Z,37.56
2022-11-01T22:26:15.830Z,37.06
2022-11-01T22:27:17.835Z,38.00
2022-11-01T22:28:20.623Z,38.75
2022-11-01T22:29:23.090Z,38.41
2022-11-01T22:30:25.210Z,39.17
2022-11-01T22:31:27.313Z,38.95
2022-11-01T22:32:30.064Z,39.75
2022-11-01T22:33:32.961Z,39.50
2022-11-01T22:34:35.129Z,39.36
2022-11-01T22:35:37.245Z,39.07
2022-11-01T22:36:39.862Z,37.81
2022-11-01T22:37:42.072Z,38.22
2022-11-01T22:38:45.058Z,38.02
2022-11-01T22:39:52.025Z,39.21
2022-11-01T22:41:58.216Z,39.39
2022-11-01T22:43:00.670Z,38.43
2022-11-01T22:44:14.557Z,37.53
2022-11-01T22:46:30.137Z,37.37
2022-11-01T22:47:33.154Z,38.23
2022-11-01T22:48:35.332Z,38.23
2022-11-01T22:49:44.683Z,38.06
2022-11-01T22:50:47.656Z,38.55
2022-11-01T22:51:52.174Z,39.00
2022-11-01T22:52:54.756Z,39.13
2022-11-01T22:53:57.587Z,37.46
2022-11-01T22:55:03.038Z,38.45
2022-11-01T22:56:07.735Z,38.73
2022-11-01T22:57:13.736Z,39.08
2022-11-01T22:59:50.669Z,38.42
2022-11-01T23:00:54.846Z,38.44
2022-11-01T23:02:07.226Z,38.68
2022-11-01T23:03:28.225Z,38.40
2022-11-01T23:04:30.279Z,38.46
2022-11-01T23:05:32.434Z,38.46
2022-11-01T23:06:34.635Z,39.27
2022-11-01T23:07:48.800Z,39.29
2022-11-01T23:08:51.045Z,39.32
2022-11-01T23:09:53.069Z,39.55
2022-11-01T23:10:55.762Z,39.60
2022-11-01T23:11:57.763Z,39.86
2022-11-01T23:13:16.014Z,40.25
2022-11-01T23:14:21.050Z,39.97
2022-11-01T23:15:26.892Z,39.41
2022-11-01T23:16:37.283Z,39.90
2022-11-01T23:17:39.472Z,40.41
2022-11-01T23:18:42.293Z,40.37
2022-11-01T23:19:44.618Z,40.47
2022-11-01T23:22:12.093Z,38.16
2022-11-01T23:23:17.072Z,38.11
2022-11-01T23:24:20.329Z,39.76
2022-11-01T23:25:22.535Z,39.18
2022-11-01T23:26:24.849Z,39.82
2022-11-01T23:27:28.061Z,39.91
2022-11-01T23:28:30.319Z,39.52
2022-11-01T23:29:32.429Z,38.77
2022-11-01T23:30:34.934Z,39.42
2022-11-01T23:31:37.044Z,39.35
2022-11-01T23:32:39.181Z,39.08
2022-11-01T23:35:08.075Z,39.61
2022-11-01T23:37:28.929Z,39.94
2022-11-01T23:38:34.356Z,39.93
2022-11-01T23:39:36.503Z,40.10
2022-11-01T23:40:39.690Z,40.71
2022-11-01T23:41:46.256Z,40.85
2022-11-01T23:42:48.408Z,39.05
2022-11-01T23:43:51.423Z,39.08
2022-11-01T23:44:54.981Z,39.47
2022-11-01T23:45:57.136Z,39.42
2022-11-01T23:49:34.014Z,38.44
2022-11-01T23:50:36.159Z,38.77
2022-11-01T23:51:38.219Z,38.48
2022-11-01T23:52:45.457Z,39.52
2022-11-01T23:53:49.611Z,38.86
2022-11-01T23:54:51.666Z,38.97
2022-11-01T23:55:53.779Z,38.94
2022-11-01T23:56:56.077Z,38.71
2022-11-01T23:57:59.982Z,38.56
2022-11-01T23:59:03.982Z,38.79
